Time;durP1;ratioP1;P1;durP2;ratioP2;P2;SDS_P1;SDS_P2;PMS_P1;PMS_P2;Temp;Humidity;BMP_temperature;BMP_pressure;BME280_temperature;BME280_humidity;BME280_pressure;Samples;Min_cycle;Max_cycle;Signal;HPM_P1;HPM_P2
2023/05/07 00:02:22;;;;;;;3.60;3.00;;;;;;;4.88;99.75;99925.36;436999;1254;138880;-63
2023/05/07 00:12:31;;;;;;;4.50;3.30;;;;;;;4.80;99.60;99932.39;436980;1253;138797;-63
2023/05/07 00:22:37;;;;;;;5.20;2.50;;;;;;;4.74;99.53;99930.53;436779;1253;139014;-63
2023/05/07 00:32:45;;;;;;;4.60;2.60;;;;;;;4.68;99.36;99940.27;436463;1254;139840;-62
2023/05/07 00:42:56;;;;;;;4.10;3.70;;;;;;;4.66;98.91;99946.74;436779;1254;139978;-63
2023/05/07 00:53:03;;;;;;;2.80;2.60;;;;;;;4.69;98.72;99955.34;436444;1251;141610;-64
2023/05/07 01:03:09;;;;;;;3.60;2.60;;;;;;;4.69;99.00;99957.08;436676;1251;139631;-63
2023/05/07 01:13:16;;;;;;;3.30;3.00;;;;;;;4.68;98.43;99953.27;436929;1251;139100;-62
2023/05/07 01:23:23;;;;;;;3.50;3.20;;;;;;;4.65;98.88;99953.21;437006;1251;140629;-63
2023/05/07 01:33:32;;;;;;;3.50;2.80;;;;;;;4.60;98.11;99966.89;437028;1251;140907;-62
2023/05/07 01:43:38;;;;;;;3.20;2.90;;;;;;;4.53;98.28;99969.20;436895;1251;139774;-63
2023/05/07 01:53:45;;;;;;;4.20;3.00;;;;;;;4.51;98.04;99976.55;436505;1251;139373;-62
2023/05/07 02:03:51;;;;;;;5.80;2.90;;;;;;;4.48;98.14;99978.04;436575;1250;141472;-62
2023/05/07 02:13:57;;;;;;;3.50;3.20;;;;;;;4.48;98.25;99985.30;436377;1250;139768;-62
2023/05/07 02:24:03;;;;;;;3.60;3.10;;;;;;;4.46;98.35;99990.94;436117;1250;139575;-62
2023/05/07 02:34:08;;;;;;;3.80;3.40;;;;;;;4.46;98.15;99998.55;436364;1250;140735;-63
2023/05/07 02:44:14;;;;;;;3.60;3.20;;;;;;;4.42;98.36;100005.63;436465;1250;139451;-63
2023/05/07 02:54:20;;;;;;;2.30;2.10;;;;;;;4.38;98.13;100004.53;436399;1254;140351;-62
2023/05/07 03:04:26;;;;;;;2.70;2.50;;;;;;;4.34;97.72;100005.15;436414;1251;139955;-62
2023/05/07 03:14:31;;;;;;;4.20;3.00;;;;;;;4.30;98.01;100009.98;436454;1250;140544;-63
2023/05/07 03:24:37;;;;;;;3.30;2.60;;;;;;;4.27;98.13;100015.09;436439;1250;139586;-63
2023/05/07 03:34:43;;;;;;;3.80;2.80;;;;;;;4.24;98.19;100031.48;436423;1252;139415;-63
2023/05/07 03:44:49;;;;;;;3.80;3.30;;;;;;;4.19;98.11;100038.88;436268;1254;139641;-63
2023/05/07 03:54:54;;;;;;;4.10;3.60;;;;;;;4.18;98.95;100045.18;436633;1250;139042;-63
2023/05/07 04:05:00;;;;;;;4.70;3.20;;;;;;;4.18;98.50;100050.71;436752;1251;139128;-63
2023/05/07 04:15:08;;;;;;;3.30;3.00;;;;;;;4.16;98.75;100073.81;436669;1250;139379;-63
2023/05/07 04:25:12;;;;;;;;;;;;;;;4.16;98.73;100072.09;436674;1251;139218;-62
2023/05/07 04:35:18;;;;;;;4.00;2.80;;;;;;;4.21;98.45;100087.36;436459;1254;126692;-62
2023/05/07 04:45:24;;;;;;;3.10;2.60;;;;;;;4.23;98.63;100098.40;436343;1251;139554;-62
2023/05/07 04:55:29;;;;;;;2.30;1.90;;;;;;;4.30;98.46;100109.27;436387;1251;139480;-62
2023/05/07 05:05:35;;;;;;;3.20;2.20;;;;;;;4.37;98.06;100120.36;436541;1251;140528;-62
2023/05/07 05:15:41;;;;;;;2.60;2.20;;;;;;;4.46;97.78;100124.59;436781;1251;139717;-62
2023/05/07 05:25:47;;;;;;;2.40;2.20;;;;;;;4.51;97.58;100136.40;436568;1251;140740;-64
2023/05/07 05:35:54;;;;;;;2.90;2.60;;;;;;;4.59;97.17;100145.86;436982;1254;139463;-63
2023/05/07 05:46:00;;;;;;;3.90;2.70;;;;;;;4.70;96.79;100149.02;436846;1254;141214;-62
2023/05/07 05:56:08;;;;;;;2.70;2.50;;;;;;;4.75;96.68;100169.66;437126;1250;141087;-63
2023/05/07 06:06:14;;;;;;;3.00;2.10;;;;;;;4.84;96.14;100168.71;436338;1251;139897;-63
2023/05/07 06:16:20;;;;;;;2.70;2.40;;;;;;;4.93;95.85;100168.24;436357;1254;139128;-62
2023/05/07 06:26:25;;;;;;;2.70;2.50;;;;;;;5.03;95.65;100173.69;436371;1251;138943;-62
2023/05/07 06:36:31;;;;;;;3.60;2.50;;;;;;;5.23;95.32;100184.15;436266;1251;140351;-62
2023/05/07 06:46:37;;;;;;;3.00;2.50;;;;;;;5.35;94.32;100190.18;436442;1254;141472;-63
2023/05/07 06:56:42;;;;;;;2.70;2.50;;;;;;;5.39;93.98;100192.83;436982;1254;139987;-62
2023/05/07 07:06:49;;;;;;;2.80;2.60;;;;;;;5.59;93.59;100195.13;436823;1251;138892;-62
2023/05/07 07:16:55;;;;;;;3.50;3.20;;;;;;;5.72;92.87;100206.49;436587;1251;142695;-63
2023/05/07 07:27:00;;;;;;;2.10;1.90;;;;;;;5.76;92.16;100228.44;436501;1250;139510;-62
2023/05/07 07:37:06;;;;;;;2.20;2.00;;;;;;;5.88;91.56;100232.58;436530;1251;139243;-62
2023/05/07 07:47:12;;;;;;;2.40;2.00;;;;;;;5.99;90.12;100239.85;436185;1251;140648;-64
2023/05/07 07:57:18;;;;;;;2.30;2.10;;;;;;;5.84;90.34;100261.69;436313;1254;141470;-61
2023/05/07 08:07:23;;;;;;;2.70;2.50;;;;;;;5.94;89.81;100265.55;436510;1250;139802;-63
2023/05/07 08:17:29;;;;;;;3.30;2.30;;;;;;;6.04;89.17;100266.10;436349;1251;140619;-62
2023/05/07 08:27:35;;;;;;;3.70;2.30;;;;;;;6.00;88.94;100272.66;436434;1253;140130;-63
2023/05/07 08:37:40;;;;;;;2.00;1.90;;;;;;;6.15;88.33;100283.81;436990;1251;139268;-63
2023/05/07 08:47:47;;;;;;;2.30;2.10;;;;;;;6.94;87.28;100295.42;436576;1251;139427;-63
2023/05/07 08:57:53;;;;;;;4.50;1.90;;;;;;;6.77;85.99;100305.47;436698;1251;140962;-63
2023/05/07 09:08:02;;;;;;;3.80;2.60;;;;;;;6.72;85.68;100317.64;436391;1254;138987;-63
2023/05/07 09:18:08;;;;;;;1.70;1.60;;;;;;;7.55;84.50;100324.62;436797;1251;141993;-63
2023/05/07 09:28:14;;;;;;;2.50;2.30;;;;;;;7.68;82.30;100327.44;436482;1254;139772;-63
2023/05/07 09:38:22;;;;;;;2.30;2.10;;;;;;;7.80;82.27;100330.96;436646;1255;139114;-63
2023/05/07 09:48:28;;;;;;;1.90;1.80;;;;;;;7.95;81.62;100343.45;436533;1250;139419;-63
2023/05/07 09:58:37;;;;;;;2.50;2.00;;;;;;;8.62;80.69;100340.79;436449;1251;139652;-63
2023/05/07 10:08:45;;;;;;;3.60;1.90;;;;;;;9.44;78.70;100351.61;436460;1256;139396;-63
2023/05/07 10:18:52;;;;;;;2.00;1.70;;;;;;;9.91;75.13;100356.77;436978;1250;139161;-63
2023/05/07 10:29:02;;;;;;;2.50;2.10;;;;;;;9.33;75.30;100362.46;436942;1250;140252;-62
2023/05/07 10:39:08;;;;;;;3.80;2.60;;;;;;;9.03;76.04;100366.45;436503;1253;140804;-63
2023/05/07 10:49:15;;;;;;;3.40;2.40;;;;;;;8.43;76.78;100378.94;436557;1254;139656;-63
2023/05/07 10:59:43;;;;;;;3.40;2.30;;;;;;;8.33;77.41;100381.30;436584;1254;139594;-60
2023/05/07 11:10:01;;;;;;;2.50;2.10;;;;;;;8.90;77.31;100372.23;436790;1254;140386;-63
2023/05/07 11:20:09;;;;;;;3.00;2.00;;;;;;;9.97;74.76;100373.78;436988;1251;139315;-65
2023/05/07 11:30:19;;;;;;;3.10;2.00;;;;;;;9.45;73.73;100384.12;437263;1251;140059;-64
2023/05/07 11:40:25;;;;;;;3.20;2.50;;;;;;;8.98;74.35;100401.59;437063;1253;139640;-63
2023/05/07 11:50:31;;;;;;;2.90;2.30;;;;;;;8.71;75.10;100414.98;436890;1255;140832;-62
2023/05/07 12:00:36;;;;;;;5.00;2.70;;;;;;;9.29;74.03;100417.50;436554;1256;139795;-62
2023/05/07 12:10:45;;;;;;;3.70;2.60;;;;;;;9.95;73.30;100417.76;436440;1255;139510;-62
2023/05/07 12:20:51;;;;;;;4.40;2.40;;;;;;;9.51;72.46;100422.27;436657;1254;141727;-63
2023/05/07 12:30:57;;;;;;;1.60;1.50;;;;;;;9.31;72.12;100425.42;436723;1251;140131;-63
2023/05/07 12:41:03;;;;;;;4.40;2.20;;;;;;;9.58;71.88;100433.84;436515;1255;140890;-62
2023/05/07 12:51:10;;;;;;;3.30;2.50;;;;;;;9.58;70.94;100448.55;436835;1255;139588;-63
2023/05/07 13:01:19;;;;;;;2.60;1.60;;;;;;;9.20;70.68;100463.13;437236;1255;139136;-63
2023/05/07 13:11:25;;;;;;;2.40;2.20;;;;;;;9.30;70.45;100458.87;437181;1255;139310;-62
2023/05/07 13:21:31;;;;;;;3.30;1.90;;;;;;;9.16;70.33;100466.80;436967;1255;140013;-63
2023/05/07 13:31:37;;;;;;;3.30;2.50;;;;;;;9.11;70.36;100464.39;436731;1256;139179;-62
2023/05/07 13:41:43;;;;;;;4.60;3.10;;;;;;;9.19;70.11;100467.91;436527;1256;139565;-61
2023/05/07 13:51:48;;;;;;;3.50;2.70;;;;;;;9.28;70.39;100464.71;437081;1254;141643;-62
2023/05/07 14:01:54;;;;;;;1.90;1.70;;;;;;;9.85;69.77;100455.30;437195;1254;140332;-63
2023/05/07 14:12:01;;;;;;;5.00;2.60;;;;;;;10.06;68.54;100460.63;436992;1257;140065;-62
2023/05/07 14:22:06;;;;;;;2.00;1.80;;;;;;;10.13;68.73;100455.06;436786;1251;139917;-63
2023/05/07 14:32:13;;;;;;;2.60;2.00;;;;;;;10.27;67.77;100462.63;436874;1256;140142;-63
2023/05/07 14:42:19;;;;;;;3.00;2.40;;;;;;;10.05;67.32;100469.96;435847;1251;140014;-62
2023/05/07 14:52:25;;;;;;;3.60;1.70;;;;;;;9.74;67.52;100477.68;435088;1255;140672;-62
2023/05/07 15:02:31;;;;;;;1.90;1.60;;;;;;;9.73;67.06;100482.11;440520;1254;138598;-63
2023/05/07 15:12:37;;;;;;;2.70;1.30;;;;;;;9.77;66.73;100493.09;436577;1255;139569;-62
2023/05/07 15:22:43;;;;;;;2.70;1.80;;;;;;;9.54;65.97;100508.13;435977;1251;139870;-62
2023/05/07 15:32:49;;;;;;;3.00;1.90;;;;;;;9.41;66.50;100501.02;436070;1255;140173;-62
2023/05/07 15:42:56;;;;;;;4.10;2.70;;;;;;;9.11;66.46;100505.65;436499;1251;139379;-63
2023/05/07 15:53:02;;;;;;;3.10;1.80;;;;;;;8.89;67.56;100516.37;436325;1254;138773;-62
2023/05/07 16:03:08;;;;;;;1.70;1.60;;;;;;;8.98;68.35;100515.10;436471;1251;139455;-63
2023/05/07 16:13:17;;;;;;;3.20;2.90;;;;;;;8.96;68.74;100519.88;436645;1251;138857;-62
2023/05/07 16:23:23;;;;;;;4.60;3.50;;;;;;;8.91;68.79;100525.50;436903;1254;140019;-62
2023/05/07 16:33:29;;;;;;;4.80;3.80;;;;;;;8.67;69.18;100524.42;436668;1252;138930;-62
2023/05/07 16:43:35;;;;;;;3.30;3.10;;;;;;;8.64;69.47;100532.58;436522;1254;139016;-63
2023/05/07 16:53:40;;;;;;;3.80;3.20;;;;;;;8.40;69.18;100538.56;436355;1251;138950;-63
2023/05/07 17:03:46;;;;;;;4.20;2.40;;;;;;;8.27;69.93;100530.84;436484;1254;140100;-63
2023/05/07 17:13:52;;;;;;;5.20;3.50;;;;;;;8.09;70.08;100527.88;436615;1251;139727;-62
2023/05/07 17:23:58;;;;;;;4.10;2.70;;;;;;;8.02;70.71;100535.98;436326;1251;138242;-62
2023/05/07 17:34:04;;;;;;;3.10;2.60;;;;;;;7.68;70.99;100538.99;436453;1254;139843;-63
2023/05/07 17:44:09;;;;;;;2.50;2.20;;;;;;;7.39;71.86;100554.15;436642;1251;139959;-62
2023/05/07 17:54:15;;;;;;;3.10;2.10;;;;;;;7.04;72.67;100567.70;436258;1251;139337;-62
2023/05/07 18:04:23;;;;;;;5.50;3.00;;;;;;;6.70;73.29;100571.41;436890;1254;140554;-62
2023/05/07 18:14:29;;;;;;;3.30;2.70;;;;;;;6.35;74.06;100573.52;436723;1254;140127;-62
2023/05/07 18:24:35;;;;;;;3.70;2.80;;;;;;;6.05;75.05;100578.23;436275;1251;140276;-62
2023/05/07 18:34:41;;;;;;;7.90;4.60;;;;;;;5.71;75.75;100586.82;435915;1251;139443;-61
2023/05/07 18:44:47;;;;;;;6.80;4.90;;;;;;;5.37;76.68;100599.02;436170;1251;139853;-59
2023/05/07 18:54:52;;;;;;;7.00;5.30;;;;;;;5.12;77.78;100601.57;436271;1254;139096;-59
2023/05/07 19:04:58;;;;;;;7.90;5.80;;;;;;;4.94;78.56;100610.69;436275;1254;139462;-60
2023/05/07 19:15:04;;;;;;;10.30;6.00;;;;;;;4.75;79.45;100618.95;436571;1254;161742;-59
2023/05/07 19:25:12;;;;;;;7.90;6.30;;;;;;;4.47;79.91;100624.44;436732;1251;140478;-60
2023/05/07 19:35:18;;;;;;;8.60;6.30;;;;;;;4.05;80.82;100633.09;436561;1254;140059;-60
2023/05/07 19:45:24;;;;;;;15.00;9.80;;;;;;;3.71;81.75;100641.56;436476;1251;139370;-60
2023/05/07 19:55:30;;;;;;;12.40;9.10;;;;;;;3.43;82.75;100649.84;436500;1251;139198;-60
2023/05/07 20:05:35;;;;;;;12.70;9.30;;;;;;;3.18;83.55;100653.02;437183;1251;141032;-60
2023/05/07 20:15:41;;;;;;;11.60;8.10;;;;;;;2.89;84.13;100654.34;436722;1251;140022;-60
2023/05/07 20:25:49;;;;;;;13.40;9.40;;;;;;;2.59;84.54;100659.45;437194;1254;141113;-60
2023/05/07 20:35:57;;;;;;;18.20;13.10;;;;;;;2.29;85.56;100666.73;437101;1250;140920;-59
2023/05/07 20:46:04;;;;;;;13.60;9.20;;;;;;;2.04;86.32;100675.66;437070;1254;140855;-59
2023/05/07 20:56:10;;;;;;;11.70;10.00;;;;;;;1.75;86.30;100680.63;436724;1254;140747;-59
2023/05/07 21:06:16;;;;;;;13.60;11.60;;;;;;;1.50;86.77;100687.59;436403;1251;141396;-60
2023/05/07 21:16:22;;;;;;;10.50;9.40;;;;;;;1.33;87.66;100693.27;436129;1251;140926;-59
2023/05/07 21:26:28;;;;;;;22.80;14.80;;;;;;;1.14;88.22;100700.83;436928;1254;141097;-60
2023/05/07 21:36:34;;;;;;;20.00;14.20;;;;;;;1.06;89.22;100703.29;436657;1253;141243;-60
2023/05/07 21:46:39;;;;;;;17.90;11.40;;;;;;;0.97;89.70;100704.05;436254;1251;139353;-60
2023/05/07 21:56:46;;;;;;;16.30;12.10;;;;;;;0.85;89.97;100712.39;436351;1254;141312;-59
2023/05/07 22:06:54;;;;;;;15.70;12.20;;;;;;;0.92;91.46;100718.73;436150;1254;141329;-60
2023/05/07 22:17:00;;;;;;;17.60;11.90;;;;;;;1.04;92.20;100725.73;436165;1250;140256;-61
2023/05/07 22:27:06;;;;;;;19.90;13.00;;;;;;;0.91;91.67;100726.48;436330;1250;140185;-60
2023/05/07 22:37:12;;;;;;;15.10;10.70;;;;;;;0.78;92.01;100726.91;436327;1254;141615;-60
2023/05/07 22:47:18;;;;;;;10.80;8.50;;;;;;;1.06;93.74;100727.09;436050;1251;140168;-58
2023/05/07 22:57:23;;;;;;;9.80;6.80;;;;;;;1.41;94.47;100723.40;436292;1251;140488;-59
2023/05/07 23:07:29;;;;;;;7.60;5.90;;;;;;;1.56;94.63;100713.09;436886;1254;139006;-58
2023/05/07 23:17:35;;;;;;;6.40;4.60;;;;;;;1.75;94.46;100714.64;436934;1254;139411;-59
2023/05/07 23:27:41;;;;;;;7.40;6.00;;;;;;;1.85;94.73;100718.52;436876;1251;138844;-60
2023/05/07 23:37:47;;;;;;;8.00;5.90;;;;;;;2.00;94.79;100717.17;436636;1252;139701;-59
2023/05/07 23:47:52;;;;;;;7.70;6.20;;;;;;;2.11;95.28;100716.35;436324;1250;139346;-59
2023/05/07 23:57:58;;;;;;;6.30;5.10;;;;;;;2.10;94.42;100715.68;436713;1250;139178;-60
